sensor_id;sensor_type;location;lat;lon;timestamp;P1;durP1;ratioP1;P2;durP2;ratioP2
25509;SDS011;13413;52.336;21.200;2023-04-06T00:01:26;22.40;;;11.60;;
25509;SDS011;13413;52.336;21.200;2023-04-06T00:04:20;25.00;;;13.20;;
25509;SDS011;13413;52.336;21.200;2023-04-06T00:07:14;25.60;;;14.00;;
25509;SDS011;13413;52.336;21.200;2023-04-06T00:10:09;24.10;;;10.80;;
25509;SDS011;13413;52.336;21.200;2023-04-06T00:13:03;31.90;;;15.50;;
25509;SDS011;13413;52.336;21.200;2023-04-06T00:15:57;28.20;;;14.70;;
25509;SDS011;13413;52.336;21.200;2023-04-06T00:18:52;13.40;;;8.00;;
25509;SDS011;13413;52.336;21.200;2023-04-06T00:21:45;16.20;;;7.20;;
25509;SDS011;13413;52.336;21.200;2023-04-06T00:32:11;28.30;;;14.20;;
25509;SDS011;13413;52.336;21.200;2023-04-06T00:35:06;27.80;;;15.60;;
25509;SDS011;13413;52.336;21.200;2023-04-06T00:38:01;30.00;;;17.00;;
25509;SDS011;13413;52.336;21.200;2023-04-06T00:40:55;36.40;;;18.70;;
25509;SDS011;13413;52.336;21.200;2023-04-06T00:43:49;30.80;;;15.10;;
25509;SDS011;13413;52.336;21.200;2023-04-06T00:49:37;21.70;;;10.50;;
25509;SDS011;13413;52.336;21.200;2023-04-06T00:52:31;18.50;;;10.10;;
25509;SDS011;13413;52.336;21.200;2023-04-06T00:55:26;22.90;;;13.10;;
25509;SDS011;13413;52.336;21.200;2023-04-06T00:58:21;23.50;;;14.20;;
25509;SDS011;13413;52.336;21.200;2023-04-06T01:01:16;33.80;;;14.60;;
25509;SDS011;13413;52.336;21.200;2023-04-06T01:04:10;22.10;;;11.80;;
25509;SDS011;13413;52.336;21.200;2023-04-06T01:07:04;22.40;;;11.50;;
25509;SDS011;13413;52.336;21.200;2023-04-06T01:09:58;21.40;;;11.90;;
25509;SDS011;13413;52.336;21.200;2023-04-06T01:12:52;14.20;;;10.00;;
25509;SDS011;13413;52.336;21.200;2023-04-06T01:15:46;17.60;;;9.30;;
25509;SDS011;13413;52.336;21.200;2023-04-06T01:18:41;15.20;;;8.60;;
25509;SDS011;13413;52.336;21.200;2023-04-06T01:24:27;30.40;;;15.30;;
25509;SDS011;13413;52.336;21.200;2023-04-06T01:27:21;21.80;;;9.40;;
25509;SDS011;13413;52.336;21.200;2023-04-06T01:30:15;18.30;;;8.90;;
25509;SDS011;13413;52.336;21.200;2023-04-06T01:33:09;21.10;;;10.20;;
25509;SDS011;13413;52.336;21.200;2023-04-06T01:36:04;16.70;;;9.30;;
25509;SDS011;13413;52.336;21.200;2023-04-06T01:38:59;15.00;;;8.50;;
25509;SDS011;13413;52.336;21.200;2023-04-06T01:41:54;16.90;;;9.60;;
25509;SDS011;13413;52.336;21.200;2023-04-06T01:44:48;13.50;;;7.30;;
25509;SDS011;13413;52.336;21.200;2023-04-06T01:47:42;17.40;;;8.80;;
25509;SDS011;13413;52.336;21.200;2023-04-06T01:50:36;14.30;;;7.50;;
25509;SDS011;13413;52.336;21.200;2023-04-06T01:53:30;15.00;;;9.50;;
25509;SDS011;13413;52.336;21.200;2023-04-06T01:56:24;16.10;;;8.90;;
25509;SDS011;13413;52.336;21.200;2023-04-06T01:59:18;17.70;;;10.50;;
25509;SDS011;13413;52.336;21.200;2023-04-06T02:02:12;21.10;;;12.10;;
25509;SDS011;13413;52.336;21.200;2023-04-06T02:05:07;20.20;;;12.60;;
25509;SDS011;13413;52.336;21.200;2023-04-06T02:08:01;22.40;;;12.60;;
25509;SDS011;13413;52.336;21.200;2023-04-06T02:10:55;26.00;;;11.90;;
25509;SDS011;13413;52.336;21.200;2023-04-06T02:13:49;15.30;;;8.60;;
25509;SDS011;13413;52.336;21.200;2023-04-06T02:16:43;18.80;;;11.50;;
25509;SDS011;13413;52.336;21.200;2023-04-06T02:19:37;19.00;;;11.00;;
25509;SDS011;13413;52.336;21.200;2023-04-06T02:22:31;23.30;;;12.10;;
25509;SDS011;13413;52.336;21.200;2023-04-06T02:25:25;21.50;;;11.80;;
25509;SDS011;13413;52.336;21.200;2023-04-06T02:28:20;21.50;;;12.50;;
25509;SDS011;13413;52.336;21.200;2023-04-06T02:31:14;19.10;;;11.70;;
25509;SDS011;13413;52.336;21.200;2023-04-06T02:34:08;17.20;;;9.80;;
25509;SDS011;13413;52.336;21.200;2023-04-06T02:37:03;35.60;;;14.30;;
25509;SDS011;13413;52.336;21.200;2023-04-06T02:39:56;23.00;;;13.10;;
25509;SDS011;13413;52.336;21.200;2023-04-06T02:42:50;20.40;;;13.20;;
25509;SDS011;13413;52.336;21.200;2023-04-06T02:52:02;24.30;;;14.70;;
25509;SDS011;13413;52.336;21.200;2023-04-06T02:54:56;24.70;;;13.20;;
25509;SDS011;13413;52.336;21.200;2023-04-06T02:57:50;27.30;;;13.50;;
25509;SDS011;13413;52.336;21.200;2023-04-06T03:00:43;21.00;;;10.50;;
25509;SDS011;13413;52.336;21.200;2023-04-06T03:03:38;22.70;;;12.60;;
25509;SDS011;13413;52.336;21.200;2023-04-06T03:06:32;19.60;;;9.00;;
25509;SDS011;13413;52.336;21.200;2023-04-06T03:09:25;25.50;;;13.90;;
25509;SDS011;13413;52.336;21.200;2023-04-06T03:12:20;25.20;;;13.10;;
25509;SDS011;13413;52.336;21.200;2023-04-06T03:15:14;24.40;;;14.20;;
25509;SDS011;13413;52.336;21.200;2023-04-06T03:18:08;24.40;;;13.10;;
25509;SDS011;13413;52.336;21.200;2023-04-06T03:21:04;23.20;;;12.50;;
25509;SDS011;13413;52.336;21.200;2023-04-06T03:23:58;23.20;;;12.60;;
25509;SDS011;13413;52.336;21.200;2023-04-06T03:26:52;24.30;;;12.80;;
25509;SDS011;13413;52.336;21.200;2023-04-06T03:29:46;24.70;;;13.90;;
25509;SDS011;13413;52.336;21.200;2023-04-06T03:32:40;17.70;;;10.80;;
25509;SDS011;13413;52.336;21.200;2023-04-06T03:35:34;23.80;;;13.30;;
25509;SDS011;13413;52.336;21.200;2023-04-06T03:38:28;34.30;;;14.30;;
25509;SDS011;13413;52.336;21.200;2023-04-06T03:41:22;20.10;;;10.20;;
25509;SDS011;13413;52.336;21.200;2023-04-06T03:44:19;30.30;;;14.20;;
25509;SDS011;13413;52.336;21.200;2023-04-06T03:47:13;27.10;;;13.40;;
25509;SDS011;13413;52.336;21.200;2023-04-06T03:50:08;23.50;;;12.30;;
25509;SDS011;13413;52.336;21.200;2023-04-06T03:53:02;27.40;;;13.20;;
25509;SDS011;13413;52.336;21.200;2023-04-06T03:55:56;25.60;;;13.50;;
25509;SDS011;13413;52.336;21.200;2023-04-06T03:58:50;23.00;;;12.60;;
25509;SDS011;13413;52.336;21.200;2023-04-06T04:01:44;28.90;;;12.10;;
25509;SDS011;13413;52.336;21.200;2023-04-06T04:04:38;25.90;;;10.90;;
25509;SDS011;13413;52.336;21.200;2023-04-06T04:07:32;28.60;;;12.90;;
25509;SDS011;13413;52.336;21.200;2023-04-06T04:10:26;23.40;;;9.90;;
25509;SDS011;13413;52.336;21.200;2023-04-06T04:13:21;23.40;;;13.00;;
25509;SDS011;13413;52.336;21.200;2023-04-06T04:16:15;26.50;;;12.60;;
25509;SDS011;13413;52.336;21.200;2023-04-06T04:19:09;26.90;;;13.60;;
25509;SDS011;13413;52.336;21.200;2023-04-06T04:22:03;32.60;;;13.70;;
25509;SDS011;13413;52.336;21.200;2023-04-06T04:24:57;27.70;;;12.80;;
25509;SDS011;13413;52.336;21.200;2023-04-06T04:27:51;26.40;;;14.20;;
25509;SDS011;13413;52.336;21.200;2023-04-06T04:30:45;25.20;;;13.00;;
25509;SDS011;13413;52.336;21.200;2023-04-06T04:33:39;32.90;;;14.50;;
25509;SDS011;13413;52.336;21.200;2023-04-06T04:36:34;31.20;;;16.00;;
25509;SDS011;13413;52.336;21.200;2023-04-06T04:39:28;25.20;;;14.60;;
25509;SDS011;13413;52.336;21.200;2023-04-06T04:45:16;28.80;;;15.80;;
25509;SDS011;13413;52.336;21.200;2023-04-06T04:48:10;24.40;;;11.20;;
25509;SDS011;13413;52.336;21.200;2023-04-06T04:51:04;27.80;;;14.40;;
25509;SDS011;13413;52.336;21.200;2023-04-06T04:53:58;27.00;;;13.90;;
25509;SDS011;13413;52.336;21.200;2023-04-06T04:56:51;23.10;;;12.40;;
25509;SDS011;13413;52.336;21.200;2023-04-06T04:59:46;24.00;;;13.50;;
25509;SDS011;13413;52.336;21.200;2023-04-06T05:02:40;23.80;;;10.80;;
25509;SDS011;13413;52.336;21.200;2023-04-06T05:11:34;23.20;;;11.60;;
25509;SDS011;13413;52.336;21.200;2023-04-06T05:14:29;20.60;;;12.10;;
25509;SDS011;13413;52.336;21.200;2023-04-06T05:17:23;37.20;;;14.50;;
25509;SDS011;13413;52.336;21.200;2023-04-06T05:20:17;29.90;;;13.70;;
25509;SDS011;13413;52.336;21.200;2023-04-06T05:23:11;22.10;;;12.50;;
25509;SDS011;13413;52.336;21.200;2023-04-06T05:26:05;21.30;;;11.50;;
25509;SDS011;13413;52.336;21.200;2023-04-06T05:28:59;19.20;;;10.40;;
25509;SDS011;13413;52.336;21.200;2023-04-06T05:31:53;20.60;;;12.10;;
25509;SDS011;13413;52.336;21.200;2023-04-06T05:34:47;26.40;;;15.10;;
25509;SDS011;13413;52.336;21.200;2023-04-06T05:37:42;50.10;;;26.20;;
25509;SDS011;13413;52.336;21.200;2023-04-06T05:40:36;94.50;;;48.90;;
25509;SDS011;13413;52.336;21.200;2023-04-06T05:43:30;72.80;;;32.40;;
25509;SDS011;13413;52.336;21.200;2023-04-06T05:46:24;71.50;;;32.90;;
25509;SDS011;13413;52.336;21.200;2023-04-06T05:49:18;38.00;;;19.00;;
25509;SDS011;13413;52.336;21.200;2023-04-06T05:52:11;36.30;;;20.70;;
25509;SDS011;13413;52.336;21.200;2023-04-06T05:55:06;30.50;;;15.50;;
25509;SDS011;13413;52.336;21.200;2023-04-06T05:58:01;22.50;;;11.80;;
25509;SDS011;13413;52.336;21.200;2023-04-06T06:00:57;21.40;;;10.10;;
25509;SDS011;13413;52.336;21.200;2023-04-06T06:03:52;21.20;;;10.90;;
25509;SDS011;13413;52.336;21.200;2023-04-06T06:06:46;27.10;;;11.70;;
25509;SDS011;13413;52.336;21.200;2023-04-06T06:12:34;15.80;;;10.10;;
25509;SDS011;13413;52.336;21.200;2023-04-06T06:15:28;19.20;;;10.80;;
25509;SDS011;13413;52.336;21.200;2023-04-06T06:18:22;19.90;;;10.10;;
25509;SDS011;13413;52.336;21.200;2023-04-06T06:21:16;19.80;;;8.70;;
25509;SDS011;13413;52.336;21.200;2023-04-06T06:24:10;20.30;;;10.20;;
25509;SDS011;13413;52.336;21.200;2023-04-06T06:27:04;20.00;;;9.30;;
25509;SDS011;13413;52.336;21.200;2023-04-06T06:29:58;17.20;;;8.00;;
25509;SDS011;13413;52.336;21.200;2023-04-06T06:35:46;20.40;;;10.20;;
25509;SDS011;13413;52.336;21.200;2023-04-06T06:38:41;18.40;;;9.90;;
25509;SDS011;13413;52.336;21.200;2023-04-06T06:41:34;19.10;;;10.20;;
25509;SDS011;13413;52.336;21.200;2023-04-06T06:44:29;14.00;;;7.60;;
25509;SDS011;13413;52.336;21.200;2023-04-06T06:47:23;22.80;;;10.80;;
25509;SDS011;13413;52.336;21.200;2023-04-06T06:50:17;23.00;;;8.90;;
25509;SDS011;13413;52.336;21.200;2023-04-06T06:53:11;16.80;;;6.80;;
25509;SDS011;13413;52.336;21.200;2023-04-06T06:56:06;26.20;;;10.10;;
25509;SDS011;13413;52.336;21.200;2023-04-06T06:59:00;26.90;;;11.10;;
25509;SDS011;13413;52.336;21.200;2023-04-06T07:01:54;16.50;;;8.20;;
25509;SDS011;13413;52.336;21.200;2023-04-06T07:04:51;15.90;;;7.30;;
25509;SDS011;13413;52.336;21.200;2023-04-06T07:07:45;33.30;;;8.60;;
25509;SDS011;13413;52.336;21.200;2023-04-06T07:10:39;23.30;;;6.90;;
25509;SDS011;13413;52.336;21.200;2023-04-06T07:13:33;9.10;;;6.00;;
25509;SDS011;13413;52.336;21.200;2023-04-06T07:16:27;16.00;;;7.00;;
25509;SDS011;13413;52.336;21.200;2023-04-06T07:19:21;15.10;;;6.40;;
25509;SDS011;13413;52.336;21.200;2023-04-06T07:22:15;10.50;;;6.10;;
25509;SDS011;13413;52.336;21.200;2023-04-06T07:27:51;15.60;;;7.50;;
25509;SDS011;13413;52.336;21.200;2023-04-06T07:30:48;12.00;;;6.50;;
25509;SDS011;13413;52.336;21.200;2023-04-06T07:33:42;12.00;;;5.30;;
25509;SDS011;13413;52.336;21.200;2023-04-06T07:36:36;13.80;;;6.30;;
25509;SDS011;13413;52.336;21.200;2023-04-06T07:39:30;10.70;;;6.50;;
25509;SDS011;13413;52.336;21.200;2023-04-06T07:42:24;13.50;;;7.30;;
25509;SDS011;13413;52.336;21.200;2023-04-06T07:45:19;11.90;;;7.50;;
25509;SDS011;13413;52.336;21.200;2023-04-06T07:48:13;10.60;;;5.50;;
25509;SDS011;13413;52.336;21.200;2023-04-06T07:51:07;7.60;;;5.50;;
25509;SDS011;13413;52.336;21.200;2023-04-06T07:54:01;8.90;;;5.80;;
25509;SDS011;13413;52.336;21.200;2023-04-06T07:56:56;9.60;;;5.50;;
25509;SDS011;13413;52.336;21.200;2023-04-06T07:59:50;9.80;;;6.60;;
25509;SDS011;13413;52.336;21.200;2023-04-06T08:02:43;12.90;;;6.40;;
25509;SDS011;13413;52.336;21.200;2023-04-06T08:05:38;10.60;;;7.00;;
25509;SDS011;13413;52.336;21.200;2023-04-06T08:08:32;16.80;;;8.20;;
25509;SDS011;13413;52.336;21.200;2023-04-06T08:11:26;40.60;;;16.20;;
25509;SDS011;13413;52.336;21.200;2023-04-06T08:14:19;28.70;;;13.40;;
25509;SDS011;13413;52.336;21.200;2023-04-06T08:17:14;16.70;;;8.40;;
25509;SDS011;13413;52.336;21.200;2023-04-06T08:20:08;12.40;;;6.80;;
25509;SDS011;13413;52.336;21.200;2023-04-06T08:25:56;16.70;;;7.50;;
25509;SDS011;13413;52.336;21.200;2023-04-06T08:28:50;14.10;;;7.60;;
25509;SDS011;13413;52.336;21.200;2023-04-06T08:31:45;14.50;;;7.90;;
25509;SDS011;13413;52.336;21.200;2023-04-06T08:34:39;15.00;;;10.20;;
25509;SDS011;13413;52.336;21.200;2023-04-06T08:37:34;9.30;;;6.90;;
25509;SDS011;13413;52.336;21.200;2023-04-06T08:40:28;11.40;;;8.50;;
25509;SDS011;13413;52.336;21.200;2023-04-06T08:43:27;16.20;;;7.30;;
25509;SDS011;13413;52.336;21.200;2023-04-06T08:49:15;17.90;;;9.40;;
25509;SDS011;13413;52.336;21.200;2023-04-06T08:52:10;10.60;;;6.40;;
25509;SDS011;13413;52.336;21.200;2023-04-06T08:57:58;17.40;;;8.10;;
25509;SDS011;13413;52.336;21.200;2023-04-06T09:00:52;16.40;;;8.50;;
25509;SDS011;13413;52.336;21.200;2023-04-06T09:03:46;9.30;;;6.80;;
25509;SDS011;13413;52.336;21.200;2023-04-06T09:06:43;11.60;;;6.80;;
25509;SDS011;13413;52.336;21.200;2023-04-06T09:09:37;8.80;;;6.60;;
25509;SDS011;13413;52.336;21.200;2023-04-06T09:12:31;18.90;;;9.40;;
25509;SDS011;13413;52.336;21.200;2023-04-06T09:15:26;19.40;;;9.80;;
25509;SDS011;13413;52.336;21.200;2023-04-06T09:18:29;15.10;;;7.90;;
25509;SDS011;13413;52.336;21.200;2023-04-06T09:21:24;18.20;;;8.80;;
25509;SDS011;13413;52.336;21.200;2023-04-06T09:24:17;17.40;;;8.80;;
25509;SDS011;13413;52.336;21.200;2023-04-06T09:27:12;10.60;;;7.70;;
25509;SDS011;13413;52.336;21.200;2023-04-06T09:30:07;11.60;;;7.40;;
25509;SDS011;13413;52.336;21.200;2023-04-06T09:33:04;9.70;;;6.30;;
25509;SDS011;13413;52.336;21.200;2023-04-06T09:35:58;8.40;;;6.60;;
25509;SDS011;13413;52.336;21.200;2023-04-06T09:47:20;26.90;;;12.70;;
25509;SDS011;13413;52.336;21.200;2023-04-06T09:50:15;23.90;;;11.70;;
25509;SDS011;13413;52.336;21.200;2023-04-06T09:53:11;12.00;;;7.20;;
25509;SDS011;13413;52.336;21.200;2023-04-06T09:56:06;10.00;;;7.70;;
25509;SDS011;13413;52.336;21.200;2023-04-06T09:59:08;17.20;;;10.20;;
25509;SDS011;13413;52.336;21.200;2023-04-06T10:02:05;17.10;;;10.20;;
25509;SDS011;13413;52.336;21.200;2023-04-06T10:05:07;12.60;;;7.80;;
25509;SDS011;13413;52.336;21.200;2023-04-06T10:08:08;20.50;;;12.70;;
25509;SDS011;13413;52.336;21.200;2023-04-06T10:11:03;15.70;;;12.70;;
25509;SDS011;13413;52.336;21.200;2023-04-06T10:13:57;15.50;;;11.00;;
25509;SDS011;13413;52.336;21.200;2023-04-06T10:19:47;21.80;;;13.10;;
25509;SDS011;13413;52.336;21.200;2023-04-06T10:22:49;22.20;;;11.60;;
25509;SDS011;13413;52.336;21.200;2023-04-06T10:25:53;16.30;;;10.40;;
25509;SDS011;13413;52.336;21.200;2023-04-06T10:28:48;21.10;;;13.50;;
25509;SDS011;13413;52.336;21.200;2023-04-06T10:31:43;56.90;;;29.90;;
25509;SDS011;13413;52.336;21.200;2023-04-06T10:34:37;133.80;;;51.80;;
25509;SDS011;13413;52.336;21.200;2023-04-06T10:37:45;130.80;;;55.60;;
25509;SDS011;13413;52.336;21.200;2023-04-06T10:40:42;59.00;;;29.30;;
25509;SDS011;13413;52.336;21.200;2023-04-06T10:43:36;57.90;;;32.20;;
25509;SDS011;13413;52.336;21.200;2023-04-06T10:46:32;40.90;;;25.30;;
25509;SDS011;13413;52.336;21.200;2023-04-06T10:49:26;19.30;;;13.10;;
25509;SDS011;13413;52.336;21.200;2023-04-06T10:52:21;16.30;;;11.00;;
25509;SDS011;13413;52.336;21.200;2023-04-06T10:55:15;14.90;;;9.90;;
25509;SDS011;13413;52.336;21.200;2023-04-06T10:58:10;27.40;;;15.50;;
25509;SDS011;13413;52.336;21.200;2023-04-06T11:01:04;19.20;;;11.40;;
25509;SDS011;13413;52.336;21.200;2023-04-06T11:03:58;14.50;;;9.90;;
25509;SDS011;13413;52.336;21.200;2023-04-06T11:06:52;16.90;;;11.20;;
25509;SDS011;13413;52.336;21.200;2023-04-06T11:09:49;24.40;;;14.20;;
25509;SDS011;13413;52.336;21.200;2023-04-06T11:12:43;29.00;;;11.00;;
25509;SDS011;13413;52.336;21.200;2023-04-06T11:15:44;37.20;;;17.90;;
25509;SDS011;13413;52.336;21.200;2023-04-06T11:18:38;23.30;;;15.70;;
25509;SDS011;13413;52.336;21.200;2023-04-06T11:21:41;22.20;;;14.10;;
25509;SDS011;13413;52.336;21.200;2023-04-06T11:24:37;103.70;;;33.20;;
25509;SDS011;13413;52.336;21.200;2023-04-06T11:27:31;64.10;;;28.60;;
25509;SDS011;13413;52.336;21.200;2023-04-06T11:30:26;142.00;;;43.70;;
25509;SDS011;13413;52.336;21.200;2023-04-06T11:33:21;48.20;;;23.10;;
25509;SDS011;13413;52.336;21.200;2023-04-06T11:36:15;19.30;;;12.50;;
25509;SDS011;13413;52.336;21.200;2023-04-06T11:39:09;17.00;;;10.70;;
25509;SDS011;13413;52.336;21.200;2023-04-06T11:42:03;64.90;;;31.20;;
25509;SDS011;13413;52.336;21.200;2023-04-06T11:44:58;18.80;;;10.50;;
25509;SDS011;13413;52.336;21.200;2023-04-06T11:47:59;18.20;;;10.90;;
25509;SDS011;13413;52.336;21.200;2023-04-06T11:50:56;12.30;;;7.20;;
25509;SDS011;13413;52.336;21.200;2023-04-06T11:53:51;10.60;;;7.40;;
25509;SDS011;13413;52.336;21.200;2023-04-06T11:56:45;6.30;;;3.70;;
25509;SDS011;13413;52.336;21.200;2023-04-06T12:10:50;25.10;;;12.40;;
25509;SDS011;13413;52.336;21.200;2023-04-06T12:16:52;20.60;;;10.30;;
25509;SDS011;13413;52.336;21.200;2023-04-06T12:19:45;33.40;;;16.60;;
25509;SDS011;13413;52.336;21.200;2023-04-06T12:22:39;28.90;;;13.90;;
25509;SDS011;13413;52.336;21.200;2023-04-06T12:25:34;29.60;;;15.70;;
25509;SDS011;13413;52.336;21.200;2023-04-06T12:28:27;11.30;;;7.30;;
25509;SDS011;13413;52.336;21.200;2023-04-06T12:31:21;17.20;;;9.70;;
25509;SDS011;13413;52.336;21.200;2023-04-06T12:34:15;18.30;;;10.50;;
25509;SDS011;13413;52.336;21.200;2023-04-06T12:37:09;34.40;;;15.90;;
25509;SDS011;13413;52.336;21.200;2023-04-06T12:40:04;36.00;;;15.50;;
25509;SDS011;13413;52.336;21.200;2023-04-06T12:43:00;53.20;;;24.00;;
25509;SDS011;13413;52.336;21.200;2023-04-06T12:45:53;19.40;;;9.60;;
25509;SDS011;13413;52.336;21.200;2023-04-06T12:48:47;16.90;;;10.60;;
25509;SDS011;13413;52.336;21.200;2023-04-06T12:51:41;17.70;;;8.80;;
25509;SDS011;13413;52.336;21.200;2023-04-06T12:54:36;26.50;;;12.60;;
25509;SDS011;13413;52.336;21.200;2023-04-06T12:57:30;15.30;;;8.40;;
25509;SDS011;13413;52.336;21.200;2023-04-06T13:00:25;15.50;;;9.80;;
25509;SDS011;13413;52.336;21.200;2023-04-06T13:03:19;16.50;;;9.90;;
25509;SDS011;13413;52.336;21.200;2023-04-06T13:09:06;15.90;;;9.20;;
25509;SDS011;13413;52.336;21.200;2023-04-06T13:12:00;9.70;;;6.50;;
25509;SDS011;13413;52.336;21.200;2023-04-06T13:14:55;14.10;;;9.40;;
25509;SDS011;13413;52.336;21.200;2023-04-06T13:17:48;13.20;;;7.80;;
25509;SDS011;13413;52.336;21.200;2023-04-06T13:20:42;11.70;;;7.80;;
25509;SDS011;13413;52.336;21.200;2023-04-06T13:23:37;11.30;;;7.60;;
25509;SDS011;13413;52.336;21.200;2023-04-06T13:26:31;14.00;;;8.50;;
25509;SDS011;13413;52.336;21.200;2023-04-06T13:29:25;37.10;;;19.60;;
25509;SDS011;13413;52.336;21.200;2023-04-06T13:32:20;42.60;;;20.60;;
25509;SDS011;13413;52.336;21.200;2023-04-06T13:38:07;12.20;;;7.40;;
25509;SDS011;13413;52.336;21.200;2023-04-06T13:41:01;16.90;;;9.80;;
25509;SDS011;13413;52.336;21.200;2023-04-06T13:43:54;61.50;;;29.30;;
25509;SDS011;13413;52.336;21.200;2023-04-06T13:46:48;19.10;;;11.60;;
25509;SDS011;13413;52.336;21.200;2023-04-06T13:49:43;22.90;;;13.50;;
25509;SDS011;13413;52.336;21.200;2023-04-06T13:52:37;33.40;;;18.80;;
25509;SDS011;13413;52.336;21.200;2023-04-06T13:55:30;20.00;;;11.50;;
25509;SDS011;13413;52.336;21.200;2023-04-06T13:58:24;23.60;;;14.70;;
25509;SDS011;13413;52.336;21.200;2023-04-06T14:01:19;17.40;;;9.30;;
25509;SDS011;13413;52.336;21.200;2023-04-06T14:04:12;18.60;;;10.60;;
25509;SDS011;13413;52.336;21.200;2023-04-06T14:07:07;22.10;;;12.60;;
25509;SDS011;13413;52.336;21.200;2023-04-06T14:10:01;17.80;;;10.80;;
25509;SDS011;13413;52.336;21.200;2023-04-06T14:12:56;26.70;;;13.80;;
25509;SDS011;13413;52.336;21.200;2023-04-06T14:15:53;18.70;;;13.00;;
25509;SDS011;13413;52.336;21.200;2023-04-06T14:27:13;18.50;;;10.80;;
25509;SDS011;13413;52.336;21.200;2023-04-06T14:30:08;12.60;;;8.50;;
25509;SDS011;13413;52.336;21.200;2023-04-06T14:33:03;23.50;;;12.10;;
25509;SDS011;13413;52.336;21.200;2023-04-06T14:35:57;18.90;;;10.90;;
25509;SDS011;13413;52.336;21.200;2023-04-06T14:38:50;20.10;;;11.10;;
25509;SDS011;13413;52.336;21.200;2023-04-06T14:41:44;21.20;;;12.90;;
25509;SDS011;13413;52.336;21.200;2023-04-06T14:44:38;17.70;;;11.60;;
25509;SDS011;13413;52.336;21.200;2023-04-06T14:47:33;17.10;;;9.20;;
25509;SDS011;13413;52.336;21.200;2023-04-06T14:50:27;15.80;;;9.00;;
25509;SDS011;13413;52.336;21.200;2023-04-06T14:53:21;23.60;;;13.40;;
25509;SDS011;13413;52.336;21.200;2023-04-06T14:56:14;30.60;;;16.00;;
25509;SDS011;13413;52.336;21.200;2023-04-06T14:59:12;23.40;;;13.70;;
25509;SDS011;13413;52.336;21.200;2023-04-06T15:02:07;25.00;;;15.40;;
25509;SDS011;13413;52.336;21.200;2023-04-06T15:05:04;17.70;;;11.80;;
25509;SDS011;13413;52.336;21.200;2023-04-06T15:08:00;18.40;;;11.80;;
25509;SDS011;13413;52.336;21.200;2023-04-06T15:10:58;29.50;;;15.80;;
25509;SDS011;13413;52.336;21.200;2023-04-06T15:13:53;49.90;;;29.40;;
25509;SDS011;13413;52.336;21.200;2023-04-06T15:16:47;34.10;;;22.00;;
25509;SDS011;13413;52.336;21.200;2023-04-06T15:19:42;21.00;;;12.80;;
25509;SDS011;13413;52.336;21.200;2023-04-06T15:22:35;25.60;;;14.90;;
25509;SDS011;13413;52.336;21.200;2023-04-06T15:25:30;24.70;;;13.60;;
25509;SDS011;13413;52.336;21.200;2023-04-06T15:28:24;31.50;;;16.50;;
25509;SDS011;13413;52.336;21.200;2023-04-06T15:31:18;23.40;;;14.00;;
25509;SDS011;13413;52.336;21.200;2023-04-06T15:34:13;22.00;;;13.80;;
25509;SDS011;13413;52.336;21.200;2023-04-06T15:37:06;29.40;;;17.50;;
25509;SDS011;13413;52.336;21.200;2023-04-06T15:40:00;25.70;;;15.30;;
25509;SDS011;13413;52.336;21.200;2023-04-06T15:42:54;25.20;;;16.30;;
25509;SDS011;13413;52.336;21.200;2023-04-06T15:45:48;27.40;;;15.10;;
25509;SDS011;13413;52.336;21.200;2023-04-06T15:48:41;24.70;;;14.70;;
25509;SDS011;13413;52.336;21.200;2023-04-06T15:51:36;23.20;;;13.80;;
25509;SDS011;13413;52.336;21.200;2023-04-06T15:57:22;27.80;;;16.50;;
25509;SDS011;13413;52.336;21.200;2023-04-06T16:03:12;22.30;;;14.20;;
25509;SDS011;13413;52.336;21.200;2023-04-06T16:06:07;24.00;;;14.10;;
25509;SDS011;13413;52.336;21.200;2023-04-06T16:11:55;26.20;;;15.30;;
25509;SDS011;13413;52.336;21.200;2023-04-06T16:14:49;35.20;;;20.80;;
25509;SDS011;13413;52.336;21.200;2023-04-06T16:17:43;30.30;;;19.00;;
25509;SDS011;13413;52.336;21.200;2023-04-06T16:20:36;42.30;;;25.90;;
25509;SDS011;13413;52.336;21.200;2023-04-06T16:23:30;52.60;;;29.30;;
25509;SDS011;13413;52.336;21.200;2023-04-06T16:26:25;62.00;;;32.60;;
25509;SDS011;13413;52.336;21.200;2023-04-06T16:29:19;44.20;;;25.80;;
25509;SDS011;13413;52.336;21.200;2023-04-06T16:32:13;36.50;;;21.40;;
25509;SDS011;13413;52.336;21.200;2023-04-06T16:35:07;35.80;;;20.20;;
25509;SDS011;13413;52.336;21.200;2023-04-06T16:49:17;31.60;;;18.60;;
25509;SDS011;13413;52.336;21.200;2023-04-06T16:52:11;60.40;;;36.50;;
25509;SDS011;13413;52.336;21.200;2023-04-06T16:55:06;34.50;;;21.60;;
25509;SDS011;13413;52.336;21.200;2023-04-06T16:58:01;34.40;;;19.60;;
25509;SDS011;13413;52.336;21.200;2023-04-06T17:00:55;22.10;;;15.10;;
25509;SDS011;13413;52.336;21.200;2023-04-06T17:03:49;29.30;;;19.00;;
25509;SDS011;13413;52.336;21.200;2023-04-06T17:09:37;35.60;;;20.50;;
25509;SDS011;13413;52.336;21.200;2023-04-06T17:12:31;47.30;;;28.00;;
25509;SDS011;13413;52.336;21.200;2023-04-06T17:15:25;36.50;;;21.70;;
25509;SDS011;13413;52.336;21.200;2023-04-06T17:18:19;43.00;;;24.30;;
25509;SDS011;13413;52.336;21.200;2023-04-06T17:21:13;27.20;;;15.90;;
25509;SDS011;13413;52.336;21.200;2023-04-06T17:24:07;38.80;;;19.90;;
25509;SDS011;13413;52.336;21.200;2023-04-06T17:27:02;34.80;;;19.80;;
25509;SDS011;13413;52.336;21.200;2023-04-06T17:29:56;33.50;;;20.00;;
25509;SDS011;13413;52.336;21.200;2023-04-06T17:32:50;30.50;;;19.20;;
25509;SDS011;13413;52.336;21.200;2023-04-06T17:35:44;34.80;;;19.50;;
25509;SDS011;13413;52.336;21.200;2023-04-06T17:38:38;33.60;;;22.20;;
25509;SDS011;13413;52.336;21.200;2023-04-06T17:41:32;48.60;;;30.40;;
25509;SDS011;13413;52.336;21.200;2023-04-06T17:44:25;32.40;;;20.10;;
25509;SDS011;13413;52.336;21.200;2023-04-06T17:47:19;39.60;;;21.80;;
25509;SDS011;13413;52.336;21.200;2023-04-06T17:50:13;29.30;;;17.70;;
25509;SDS011;13413;52.336;21.200;2023-04-06T17:53:07;36.10;;;19.20;;
25509;SDS011;13413;52.336;21.200;2023-04-06T17:56:02;31.20;;;15.60;;
25509;SDS011;13413;52.336;21.200;2023-04-06T17:58:56;28.80;;;17.80;;
25509;SDS011;13413;52.336;21.200;2023-04-06T18:01:50;33.20;;;18.50;;
25509;SDS011;13413;52.336;21.200;2023-04-06T18:04:44;30.20;;;18.70;;
25509;SDS011;13413;52.336;21.200;2023-04-06T18:07:41;32.20;;;18.30;;
25509;SDS011;13413;52.336;21.200;2023-04-06T18:10:37;29.60;;;17.50;;
25509;SDS011;13413;52.336;21.200;2023-04-06T18:16:22;38.90;;;20.60;;
25509;SDS011;13413;52.336;21.200;2023-04-06T18:19:17;36.40;;;21.90;;
25509;SDS011;13413;52.336;21.200;2023-04-06T18:22:10;27.70;;;18.90;;
25509;SDS011;13413;52.336;21.200;2023-04-06T18:25:05;28.30;;;18.50;;
25509;SDS011;13413;52.336;21.200;2023-04-06T18:28:00;57.90;;;30.60;;
25509;SDS011;13413;52.336;21.200;2023-04-06T18:30:54;29.90;;;18.20;;
25509;SDS011;13413;52.336;21.200;2023-04-06T18:33:48;42.10;;;23.20;;
25509;SDS011;13413;52.336;21.200;2023-04-06T18:36:42;34.80;;;21.40;;
25509;SDS011;13413;52.336;21.200;2023-04-06T18:39:36;36.00;;;21.00;;
25509;SDS011;13413;52.336;21.200;2023-04-06T18:42:30;43.20;;;24.90;;